
Distance (Route):
Temperature : 0°C
Humidity : 0%
Pressure : 0hPa| Receiver | Frames | First received | Last received |
|---|---|---|---|
| 9A1FER-3 | 288 | 2026-09-05 23:55:43 | 2026-09-06 01:20:54 |
| PETON7-10 | 60 | 2026-09-06 00:33:47 | 2026-09-06 00:55:29 |
| 9A1FER-10 | 9 | 2026-09-06 00:08:46 | 2026-09-06 00:30:55 |
| S57NTA-12 | 3 | 2026-09-06 00:52:11 | 2026-09-06 00:53:09 |
| OE3JTB-15 | 1 | 2026-09-06 00:07:48 | 2026-09-06 00:07:48 |
| Receiver | Date | Latitude | Longitude | Direction | Speed | Altitude | Climb | Temperature | Humidity | Pressure | Voltage | Killtimer | Uptime | BKT | XDATA |
|---|---|---|---|---|---|---|---|---|---|---|---|---|---|---|---|
| 9A1FER-3 | 2026-09-06 01:20:54 | 45.58384 | 15.57088 | 278° | 24km/h | 948m | -9.9m/s | 0°C | 0% | 0hPa | 0V | 00:00:00 | 00:00:00 | 00:00:00 | |
| 9A1FER-3 | 2026-09-06 01:20:02 | 45.58402 | 15.57569 | 256° | 18km/h | 1547m | -12.2m/s | 0°C | 0% | 0hPa | 0V | 00:00:00 | 00:00:00 | 00:00:00 | |
| 9A1FER-3 | 2026-09-06 01:19:57 | 45.58410 | 15.57604 | 255° | 20km/h | 1612m | -12.0m/s | 0°C | 0% | 0hPa | 0V | 00:00:00 | 00:00:00 | 00:00:00 | |
| 9A1FER-3 | 2026-09-06 01:19:52 | 45.58415 | 15.57637 | 255° | 18km/h | 1674m | -10.8m/s | 0°C | 0% | 0hPa | 0V | 00:00:00 | 00:00:00 | 00:00:00 | |
| 9A1FER-3 | 2026-09-06 01:19:47 | 45.58421 | 15.57669 | 258° | 18km/h | 1734m | -9.5m/s | 0°C | 0% | 0hPa | 0V | 00:00:00 | 00:00:00 | 00:00:00 | |
| 9A1FER-3 | 2026-09-06 01:19:42 | 45.58425 | 15.57700 | 265° | 16km/h | 1793m | -10.8m/s | 0°C | 0% | 0hPa | 0V | 00:00:00 | 00:00:00 | 00:00:00 | |
| 9A1FER-3 | 2026-09-06 01:19:37 | 45.58427 | 15.57729 | 275° | 16km/h | 1855m | -11.1m/s | 0°C | 0% | 0hPa | 0V | 00:00:00 | 00:00:00 | 00:00:00 | |
| 9A1FER-3 | 2026-09-06 01:19:32 | 45.58429 | 15.57759 | 265° | 18km/h | 1914m | -12.4m/s | 0°C | 0% | 0hPa | 0V | 00:00:00 | 00:00:00 | 00:00:00 | |
| 9A1FER-3 | 2026-09-06 01:19:26 | 45.58429 | 15.57798 | 278° | 18km/h | 1989m | -10.9m/s | 0°C | 0% | 0hPa | 0V | 00:00:00 | 00:00:00 | 00:00:00 | |
| 9A1FER-3 | 2026-09-06 01:19:19 | 45.58421 | 15.57844 | 286° | 20km/h | 2078m | -10.6m/s | 0°C | 0% | 0hPa | 0V | 00:00:00 | 00:00:00 | 00:00:00 | |
| 9A1FER-3 | 2026-09-06 01:19:09 | 45.58392 | 15.57903 | 314° | 13km/h | 2198m | -11.2m/s | 0°C | 0% | 0hPa | 0V | 00:00:00 | 00:00:00 | 00:00:00 | |
| 9A1FER-3 | 2026-09-06 01:18:59 | 45.58367 | 15.57934 | 326° | 9km/h | 2322m | -12.1m/s | 0°C | 0% | 0hPa | 0V | 00:00:00 | 00:00:00 | 00:00:00 | |
| 9A1FER-3 | 2026-09-06 01:18:49 | 45.58347 | 15.57956 | 311° | 7km/h | 2444m | -10.3m/s | 0°C | 0% | 0hPa | 0V | 00:00:00 | 00:00:00 | 00:00:00 | |
| 9A1FER-3 | 2026-09-06 01:18:39 | 45.58355 | 15.57977 | 225° | 11km/h | 2569m | -11.6m/s | 0°C | 0% | 0hPa | 0V | 00:00:00 | 00:00:00 | 00:00:00 | |
| 9A1FER-3 | 2026-09-06 01:18:29 | 45.58374 | 15.58008 | 226° | 9km/h | 2687m | -11.5m/s | 0°C | 0% | 0hPa | 0V | 00:00:00 | 00:00:00 | 00:00:00 | |
| 9A1FER-3 | 2026-09-06 01:18:09 | 45.58410 | 15.58021 | 119° | 7km/h | 2941m | -11.9m/s | 0°C | 0% | 0hPa | 0V | 00:00:00 | 00:00:00 | 00:00:00 | |
| 9A1FER-3 | 2026-09-06 01:17:59 | 45.58419 | 15.58001 | 92° | 13km/h | 3059m | -11.1m/s | 0°C | 0% | 0hPa | 0V | 00:00:00 | 00:00:00 | 00:00:00 | |
| 9A1FER-3 | 2026-09-06 01:17:44 | 45.58428 | 15.57934 | 100° | 20km/h | 3245m | -11.0m/s | 0°C | 0% | 0hPa | 0V | 00:00:00 | 00:00:00 | 00:00:00 | |
| 9A1FER-3 | 2026-09-06 01:17:28 | 45.58443 | 15.57833 | 108° | 22km/h | 3426m | -11.1m/s | 0°C | 0% | 0hPa | 0V | 00:00:00 | 00:00:00 | 00:00:00 | |
| 9A1FER-3 | 2026-09-06 01:17:13 | 45.58463 | 15.57717 | 104° | 27km/h | 3595m | -11.9m/s | 0°C | 0% | 0hPa | 0V | 00:00:00 | 00:00:00 | 00:00:00 | |
| 9A1FER-3 | 2026-09-06 01:16:45 | 45.58493 | 15.57424 | 102° | 35km/h | 3917m | -10.4m/s | 0°C | 0% | 0hPa | 0V | 00:00:00 | 00:00:00 | 00:00:00 | |
| 9A1FER-3 | 2026-09-06 01:16:30 | 45.58524 | 15.57245 | 109° | 31km/h | 4090m | -12.3m/s | 0°C | 0% | 0hPa | 0V | 00:00:00 | 00:00:00 | 00:00:00 | |
| 9A1FER-3 | 2026-09-06 01:16:14 | 45.58556 | 15.57077 | 108° | 38km/h | 4287m | -10.9m/s | 0°C | 0% | 0hPa | 0V | 00:00:00 | 00:00:00 | 00:00:00 | |
| 9A1FER-3 | 2026-09-06 01:15:54 | 45.58665 | 15.56832 | 127° | 46km/h | 4528m | -12.8m/s | 0°C | 0% | 0hPa | 0V | 00:00:00 | 00:00:00 | 00:00:00 | |
| 9A1FER-3 | 2026-09-06 01:15:39 | 45.58755 | 15.56624 | 125° | 40km/h | 4711m | -12.2m/s | 0°C | 0% | 0hPa | 0V | 00:00:00 | 00:00:00 | 00:00:00 | |
| 9A1FER-3 | 2026-09-06 01:15:20 | 45.58851 | 15.56372 | 118° | 44km/h | 4947m | -12.9m/s | 0°C | 0% | 0hPa | 0V | 00:00:00 | 00:00:00 | 00:00:00 | |
| 9A1FER-3 | 2026-09-06 01:15:01 | 45.58951 | 15.56111 | 115° | 46km/h | 5186m | -12.0m/s | 0°C | 0% | 0hPa | 0V | 00:00:00 | 00:00:00 | 00:00:00 | |
| 9A1FER-3 | 2026-09-06 01:14:45 | 45.59024 | 15.55870 | 113° | 46km/h | 5395m | -13.0m/s | 0°C | 0% | 0hPa | 0V | 00:00:00 | 00:00:00 | 00:00:00 | |
| 9A1FER-3 | 2026-09-06 01:14:30 | 45.59100 | 15.55630 | 115° | 53km/h | 5583m | -11.5m/s | 0°C | 0% | 0hPa | 0V | 00:00:00 | 00:00:00 | 00:00:00 | |
| 9A1FER-3 | 2026-09-06 01:13:58 | 45.59276 | 15.55054 | 123° | 62km/h | 5985m | -13.9m/s | 0°C | 0% | 0hPa | 0V | 00:00:00 | 00:00:00 | 00:00:00 | |
| 9A1FER-3 | 2026-09-06 01:13:43 | 45.59413 | 15.54781 | 129° | 71km/h | 6203m | -14.6m/s | 0°C | 0% | 0hPa | 0V | 00:00:00 | 00:00:00 | 00:00:00 | |
| 9A1FER-3 | 2026-09-06 01:13:23 | 45.59650 | 15.54398 | 131° | 71km/h | 6489m | -13.2m/s | 0°C | 0% | 0hPa | 0V | 00:00:00 | 00:00:00 | 00:00:00 | |
| 9A1FER-3 | 2026-09-06 01:13:01 | 45.59904 | 15.53956 | 132° | 77km/h | 6797m | -14.1m/s | 0°C | 0% | 0hPa | 0V | 00:00:00 | 00:00:00 | 00:00:00 | |
| 9A1FER-3 | 2026-09-06 01:12:46 | 45.60089 | 15.53661 | 131° | 71km/h | 6999m | -9.6m/s | 0°C | 0% | 0hPa | 0V | 00:00:00 | 00:00:00 | 00:00:00 | |
| 9A1FER-3 | 2026-09-06 01:12:30 | 45.60281 | 15.53356 | 136° | 73km/h | 7162m | -11.2m/s | 0°C | 0% | 0hPa | 0V | 00:00:00 | 00:00:00 | 00:00:00 | |
| 9A1FER-3 | 2026-09-06 01:12:15 | 45.60480 | 15.53083 | 138° | 75km/h | 7315m | -7.8m/s | 0°C | 0% | 0hPa | 0V | 00:00:00 | 00:00:00 | 00:00:00 | |
| 9A1FER-3 | 2026-09-06 01:11:59 | 45.60705 | 15.52783 | 132° | 80km/h | 7470m | -9.5m/s | 0°C | 0% | 0hPa | 0V | 00:00:00 | 00:00:00 | 00:00:00 | |
| 9A1FER-3 | 2026-09-06 01:11:39 | 45.60981 | 15.52359 | 133° | 84km/h | 7665m | -8.8m/s | 0°C | 0% | 0hPa | 0V | 00:00:00 | 00:00:00 | 00:00:00 | |
| 9A1FER-3 | 2026-09-06 01:11:23 | 45.61198 | 15.52001 | 131° | 82km/h | 7822m | -9.9m/s | 0°C | 0% | 0hPa | 0V | 00:00:00 | 00:00:00 | 00:00:00 | |
| 9A1FER-3 | 2026-09-06 01:11:05 | 45.61443 | 15.51591 | 130° | 82km/h | 8007m | -9.2m/s | 0°C | 0% | 0hPa | 0V | 00:00:00 | 00:00:00 | 00:00:00 | |
| 9A1FER-3 | 2026-09-06 01:10:50 | 45.61647 | 15.51247 | 130° | 82km/h | 8158m | -13.6m/s | 0°C | 0% | 0hPa | 0V | 00:00:00 | 00:00:00 | 00:00:00 | |
| 9A1FER-3 | 2026-09-06 01:10:35 | 45.61838 | 15.50888 | 128° | 80km/h | 8332m | -12.6m/s | 0°C | 0% | 0hPa | 0V | 00:00:00 | 00:00:00 | 00:00:00 | |
| 9A1FER-3 | 2026-09-06 01:10:15 | 45.62075 | 15.50417 | 126° | 80km/h | 8589m | -12.1m/s | 0°C | 0% | 0hPa | 0V | 00:00:00 | 00:00:00 | 00:00:00 | |
| 9A1FER-3 | 2026-09-06 01:10:00 | 45.62242 | 15.50041 | 123° | 75km/h | 8783m | -13.6m/s | 0°C | 0% | 0hPa | 0V | 00:00:00 | 00:00:00 | 00:00:00 | |
| 9A1FER-3 | 2026-09-06 01:09:44 | 45.62410 | 15.49661 | 120° | 77km/h | 8994m | -12.2m/s | 0°C | 0% | 0hPa | 0V | 00:00:00 | 00:00:00 | 00:00:00 | |
| 9A1FER-3 | 2026-09-06 01:09:26 | 45.62607 | 15.49245 | 125° | 78km/h | 9228m | -11.8m/s | 0°C | 0% | 0hPa | 0V | 00:00:00 | 00:00:00 | 00:00:00 | |
| 9A1FER-3 | 2026-09-06 01:09:11 | 45.62786 | 15.48899 | 132° | 78km/h | 9421m | -16.5m/s | 0°C | 0% | 0hPa | 0V | 00:00:00 | 00:00:00 | 00:00:00 | |
| 9A1FER-3 | 2026-09-06 01:08:53 | 45.63025 | 15.48505 | 132° | 84km/h | 9637m | -11.7m/s | 0°C | 0% | 0hPa | 0V | 00:00:00 | 00:00:00 | 00:00:00 | |
| 9A1FER-3 | 2026-09-06 01:08:12 | 45.63607 | 15.47552 | 127° | 91km/h | 10095m | -8.7m/s | 0°C | 0% | 0hPa | 0V | 00:00:00 | 00:00:00 | 00:00:00 | |
| 9A1FER-3 | 2026-09-06 01:07:54 | 45.63893 | 15.47114 | 136° | 95km/h | 10289m | -10.4m/s | 0°C | 0% | 0hPa | 0V | 00:00:00 | 00:00:00 | 00:00:00 | |
| 9A1FER-3 | 2026-09-06 01:06:57 | 45.64882 | 15.45665 | 132° | 100km/h | 10928m | -10.5m/s | 0°C | 0% | 0hPa | 0V | 00:00:00 | 00:00:00 | 00:00:00 | |
| 9A1FER-3 | 2026-09-06 01:06:40 | 45.65172 | 15.45212 | 131° | 100km/h | 11131m | -11.6m/s | 0°C | 0% | 0hPa | 0V | 00:00:00 | 00:00:00 | 00:00:00 | |
| 9A1FER-3 | 2026-09-06 01:06:22 | 45.65477 | 15.44720 | 132° | 102km/h | 11347m | -10.8m/s | 0°C | 0% | 0hPa | 0V | 00:00:00 | 00:00:00 | 00:00:00 | |
| 9A1FER-3 | 2026-09-06 01:06:06 | 45.65759 | 15.44292 | 134° | 104km/h | 11541m | -12.2m/s | 0°C | 0% | 0hPa | 0V | 00:00:00 | 00:00:00 | 00:00:00 | |
| 9A1FER-3 | 2026-09-06 01:05:35 | 45.66360 | 15.43446 | 139° | 115km/h | 11935m | -12.0m/s | 0°C | 0% | 0hPa | 0V | 00:00:00 | 00:00:00 | 00:00:00 | |
| 9A1FER-3 | 2026-09-06 01:05:20 | 45.66673 | 15.43017 | 133° | 122km/h | 12127m | -12.3m/s | 0°C | 0% | 0hPa | 0V | 00:00:00 | 00:00:00 | 00:00:00 | |
| 9A1FER-3 | 2026-09-06 01:05:04 | 45.67008 | 15.42502 | 133° | 128km/h | 12345m | -11.8m/s | 0°C | 0% | 0hPa | 0V | 00:00:00 | 00:00:00 | 00:00:00 | |
| 9A1FER-3 | 2026-09-06 01:04:47 | 45.67382 | 15.41929 | 133° | 128km/h | 12574m | -13.2m/s | 0°C | 0% | 0hPa | 0V | 00:00:00 | 00:00:00 | 00:00:00 | |
| 9A1FER-3 | 2026-09-06 01:04:27 | 45.67809 | 15.41234 | 131° | 133km/h | 12857m | -13.6m/s | 0°C | 0% | 0hPa | 0V | 00:00:00 | 00:00:00 | 00:00:00 | |
| 9A1FER-3 | 2026-09-06 01:04:11 | 45.68148 | 15.40644 | 130° | 131km/h | 13095m | -14.1m/s | 0°C | 0% | 0hPa | 0V | 00:00:00 | 00:00:00 | 00:00:00 | |
| 9A1FER-3 | 2026-09-06 01:03:53 | 45.68516 | 15.39978 | 128° | 130km/h | 13374m | -15.4m/s | 0°C | 0% | 0hPa | 0V | 00:00:00 | 00:00:00 | 00:00:00 | |
| 9A1FER-3 | 2026-09-06 01:03:36 | 45.68865 | 15.39354 | 131° | 119km/h | 13643m | -13.6m/s | 0°C | 0% | 0hPa | 0V | 00:00:00 | 00:00:00 | 00:00:00 | |
| 9A1FER-3 | 2026-09-06 01:03:20 | 45.69168 | 15.38829 | 127° | 108km/h | 13888m | -12.6m/s | 0°C | 0% | 0hPa | 0V | 00:00:00 | 00:00:00 | 00:00:00 | |
| 9A1FER-3 | 2026-09-06 01:03:04 | 45.69376 | 15.38286 | 119° | 84km/h | 14135m | -13.7m/s | 0°C | 0% | 0hPa | 0V | 00:00:00 | 00:00:00 | 00:00:00 | |
| 9A1FER-3 | 2026-09-06 00:59:25 | 45.70996 | 15.32960 | 97° | 49km/h | 17671m | -14.9m/s | 0°C | 0% | 0hPa | 0V | 00:00:00 | 00:00:00 | 00:00:00 | |
| 9A1FER-3 | 2026-09-06 00:59:05 | 45.71084 | 15.32617 | 122° | 51km/h | 17999m | -18.0m/s | 0°C | 0% | 0hPa | 0V | 00:00:00 | 00:00:00 | 00:00:00 | |
| 9A1FER-3 | 2026-09-06 00:58:50 | 45.71177 | 15.32375 | 106° | 44km/h | 18262m | -17.4m/s | 0°C | 0% | 0hPa | 0V | 00:00:00 | 00:00:00 | 00:00:00 | |
| 9A1FER-3 | 2026-09-06 00:58:35 | 45.71225 | 15.32149 | 111° | 37km/h | 18538m | -17.0m/s | 0°C | 0% | 0hPa | 0V | 00:00:00 | 00:00:00 | 00:00:00 | |
| 9A1FER-3 | 2026-09-06 00:58:19 | 45.71243 | 15.31936 | 94° | 37km/h | 18836m | -17.2m/s | 0°C | 0% | 0hPa | 0V | 00:00:00 | 00:00:00 | 00:00:00 | |
| 9A1FER-3 | 2026-09-06 00:58:04 | 45.71238 | 15.31733 | 83° | 40km/h | 19102m | -17.1m/s | 0°C | 0% | 0hPa | 0V | 00:00:00 | 00:00:00 | 00:00:00 | |
| 9A1FER-3 | 2026-09-06 00:57:47 | 45.71232 | 15.31501 | 101° | 35km/h | 19423m | -19.1m/s | 0°C | 0% | 0hPa | 0V | 00:00:00 | 00:00:00 | 00:00:00 | |
| 9A1FER-3 | 2026-09-06 00:57:28 | 45.71328 | 15.31327 | 133° | 35km/h | 19782m | -18.0m/s | 0°C | 0% | 0hPa | 0V | 00:00:00 | 00:00:00 | 00:00:00 | |
| 9A1FER-3 | 2026-09-06 00:57:09 | 45.71441 | 15.31169 | 139° | 27km/h | 20148m | -17.7m/s | 0°C | 0% | 0hPa | 0V | 00:00:00 | 00:00:00 | 00:00:00 | |
| 9A1FER-3 | 2026-09-06 00:56:21 | 45.71469 | 15.30690 | 116° | 15km/h | 21084m | -18.1m/s | 0°C | 0% | 0hPa | 0V | 00:00:00 | 00:00:00 | 00:00:00 | |
| 9A1FER-3 | 2026-09-06 00:56:05 | 45.71503 | 15.30673 | 148° | 13km/h | 21390m | -18.5m/s | 0°C | 0% | 0hPa | 0V | 00:00:00 | 00:00:00 | 00:00:00 | |
| 9A1FER-3 | 2026-09-06 00:55:49 | 45.71544 | 15.30633 | 138° | 24km/h | 21712m | -18.0m/s | 0°C | 0% | 0hPa | 0V | 00:00:00 | 00:00:00 | 00:00:00 | |
| PETON7-10 | 2026-09-06 00:55:29 | 45.71605 | 15.30592 | 110° | 18km/h | 22145m | -18.1m/s | 0°C | 0% | 0hPa | 0V | 00:00:00 | 00:00:00 | 00:00:00 | |
| 9A1FER-3 | 2026-09-06 00:54:56 | 45.71693 | 15.30372 | 150° | 22km/h | 22664m | -16.3m/s | 0°C | 0% | 0hPa | 0V | 00:00:00 | 00:00:00 | 00:00:00 | |
| 9A1FER-3 | 2026-09-06 00:54:41 | 45.71751 | 15.30340 | 240° | 13km/h | 22922m | -15.3m/s | 0°C | 0% | 0hPa | 0V | 00:00:00 | 00:00:00 | 00:00:00 | |
| 9A1FER-3 | 2026-09-06 00:54:26 | 45.71732 | 15.30378 | 87° | 7km/h | 23188m | -21.5m/s | 0°C | 0% | 0hPa | 0V | 00:00:00 | 00:00:00 | 00:00:00 | |
| 9A1FER-3 | 2026-09-06 00:54:10 | 45.71736 | 15.30358 | 98° | 9km/h | 23485m | -16.5m/s | 0°C | 0% | 0hPa | 0V | 00:00:00 | 00:00:00 | 00:00:00 | |
| 9A1FER-3 | 2026-09-06 00:53:38 | 45.71712 | 15.30304 | 24° | 26km/h | 24173m | -21.4m/s | 0°C | 0% | 0hPa | 0V | 00:00:00 | 00:00:00 | 00:00:00 | |
| 9A1FER-3 | 2026-09-06 00:53:21 | 45.71646 | 15.30211 | 94° | 24km/h | 24460m | -12.3m/s | 0°C | 0% | 0hPa | 0V | 00:00:00 | 00:00:00 | 00:00:00 | |
| S57NTA-12 | 2026-09-06 00:53:09 | 45.71637 | 15.30124 | 127° | 18km/h | 24677m | -17.5m/s | 0°C | 0% | 0hPa | 0V | 00:00:00 | 00:00:00 | 00:00:00 | |
| PETON7-10 | 2026-09-06 00:53:08 | 45.71640 | 15.30119 | 129° | 18km/h | 24696m | -19.5m/s | 0°C | 0% | 0hPa | 0V | 00:00:00 | 00:00:00 | 00:00:00 | |
| 9A1FER-3 | 2026-09-06 00:53:06 | 45.71645 | 15.30108 | 109° | 15km/h | 24735m | -19.3m/s | 0°C | 0% | 0hPa | 0V | 00:00:00 | 00:00:00 | 00:00:00 | |
| PETON7-10 | 2026-09-06 00:52:53 | 45.71667 | 15.30080 | 116° | 18km/h | 24987m | -20.7m/s | 0°C | 0% | 0hPa | 0V | 00:00:00 | 00:00:00 | 00:00:00 | |
| 9A1FER-3 | 2026-09-06 00:52:46 | 45.71674 | 15.30042 | 160° | 18km/h | 25129m | -20.3m/s | 0°C | 0% | 0hPa | 0V | 00:00:00 | 00:00:00 | 00:00:00 | |
| PETON7-10 | 2026-09-06 00:52:38 | 45.71710 | 15.30010 | 117° | 16km/h | 25211m | 7.8m/s | 0°C | 0% | 0hPa | 0V | 00:00:00 | 00:00:00 | 00:00:00 | |
| S57NTA-12 | 2026-09-06 00:52:33 | 45.71725 | 15.29988 | 162° | 13km/h | 25178m | 5.4m/s | 0°C | 0% | 0hPa | 0V | 00:00:00 | 00:00:00 | 00:00:00 | |
| 9A1FER-3 | 2026-09-06 00:52:31 | 45.71727 | 15.29986 | 139° | 18km/h | 25174m | 3.5m/s | 0°C | 0% | 0hPa | 0V | 00:00:00 | 00:00:00 | 00:00:00 | |
| PETON7-10 | 2026-09-06 00:52:23 | 45.71740 | 15.29940 | 122° | 18km/h | 25130m | 4.5m/s | 0°C | 0% | 0hPa | 0V | 00:00:00 | 00:00:00 | 00:00:00 | |
| 9A1FER-3 | 2026-09-06 00:52:16 | 45.71755 | 15.29896 | 89° | 18km/h | 25092m | 6.5m/s | 0°C | 0% | 0hPa | 0V | 00:00:00 | 00:00:00 | 00:00:00 | |
| S57NTA-12 | 2026-09-06 00:52:11 | 45.71762 | 15.29867 | 134° | 16km/h | 25065m | 7.0m/s | 0°C | 0% | 0hPa | 0V | 00:00:00 | 00:00:00 | 00:00:00 | |
| PETON7-10 | 2026-09-06 00:52:08 | 45.71771 | 15.29854 | 133° | 18km/h | 25048m | 5.9m/s | 0°C | 0% | 0hPa | 0V | 00:00:00 | 00:00:00 | 00:00:00 | |
| 9A1FER-3 | 2026-09-06 00:52:01 | 45.71777 | 15.29810 | 127° | 11km/h | 25012m | 4.6m/s | 0°C | 0% | 0hPa | 0V | 00:00:00 | 00:00:00 | 00:00:00 | |
| PETON7-10 | 2026-09-06 00:51:53 | 45.71793 | 15.29784 | 88° | 9km/h | 24968m | 4.4m/s | 0°C | 0% | 0hPa | 0V | 00:00:00 | 00:00:00 | 00:00:00 | |
| 9A1FER-3 | 2026-09-06 00:51:46 | 45.71799 | 15.29766 | 207° | 7km/h | 24931m | 4.6m/s | 0°C | 0% | 0hPa | 0V | 00:00:00 | 00:00:00 | 00:00:00 | |
| PETON7-10 | 2026-09-06 00:51:38 | 45.71793 | 15.29760 | 206° | 7km/h | 24889m | 6.0m/s | 0°C | 0% | 0hPa | 0V | 00:00:00 | 00:00:00 | 00:00:00 | |
| 9A1FER-3 | 2026-09-06 00:51:31 | 45.71803 | 15.29756 | 88° | 9km/h | 24851m | 4.7m/s | 0°C | 0% | 0hPa | 0V | 00:00:00 | 00:00:00 | 00:00:00 | |
| PETON7-10 | 2026-09-06 00:51:23 | 45.71803 | 15.29737 | 142° | 15km/h | 24807m | 4.0m/s | 0°C | 0% | 0hPa | 0V | 00:00:00 | 00:00:00 | 00:00:00 | |
| 9A1FER-3 | 2026-09-06 00:51:16 | 45.71804 | 15.29712 | 64° | 18km/h | 24771m | 5.8m/s | 0°C | 0% | 0hPa | 0V | 00:00:00 | 00:00:00 | 00:00:00 | |
| PETON7-10 | 2026-09-06 00:51:06 | 45.71804 | 15.29660 | 65° | 18km/h | 24716m | 4.1m/s | 0°C | 0% | 0hPa | 0V | 00:00:00 | 00:00:00 | 00:00:00 | |
| 9A1FER-3 | 2026-09-06 00:51:01 | 45.71800 | 15.29622 | 93° | 16km/h | 24688m | 5.1m/s | 0°C | 0% | 0hPa | 0V | 00:00:00 | 00:00:00 | 00:00:00 | |
| PETON7-10 | 2026-09-06 00:50:51 | 45.71797 | 15.29564 | 42° | 22km/h | 24635m | 6.2m/s | 0°C | 0% | 0hPa | 0V | 00:00:00 | 00:00:00 | 00:00:00 | |
| 9A1FER-3 | 2026-09-06 00:50:46 | 45.71790 | 15.29539 | 114° | 22km/h | 24607m | 7.5m/s | 0°C | 0% | 0hPa | 0V | 00:00:00 | 00:00:00 | 00:00:00 | |
| PETON7-10 | 2026-09-06 00:50:36 | 45.71768 | 15.29458 | 70° | 22km/h | 24555m | 5.2m/s | 0°C | 0% | 0hPa | 0V | 00:00:00 | 00:00:00 | 00:00:00 | |
| 9A1FER-3 | 2026-09-06 00:50:31 | 45.71755 | 15.29428 | 51° | 24km/h | 24528m | 4.5m/s | 0°C | 0% | 0hPa | 0V | 00:00:00 | 00:00:00 | 00:00:00 | |
| PETON7-10 | 2026-09-06 00:50:20 | 45.71720 | 15.29356 | 48° | 24km/h | 24468m | 4.1m/s | 0°C | 0% | 0hPa | 0V | 00:00:00 | 00:00:00 | 00:00:00 | |
| 9A1FER-3 | 2026-09-06 00:50:16 | 45.71697 | 15.29331 | 47° | 22km/h | 24446m | 6.2m/s | 0°C | 0% | 0hPa | 0V | 00:00:00 | 00:00:00 | 00:00:00 | |
| PETON7-10 | 2026-09-06 00:50:05 | 45.71659 | 15.29269 | 17° | 26km/h | 24389m | 3.6m/s | 0°C | 0% | 0hPa | 0V | 00:00:00 | 00:00:00 | 00:00:00 | |
| 9A1FER-3 | 2026-09-06 00:50:01 | 45.71645 | 15.29245 | 67° | 26km/h | 24367m | 5.3m/s | 0°C | 0% | 0hPa | 0V | 00:00:00 | 00:00:00 | 00:00:00 | |
| PETON7-10 | 2026-09-06 00:49:50 | 45.71595 | 15.29174 | 58° | 24km/h | 24306m | 6.1m/s | 0°C | 0% | 0hPa | 0V | 00:00:00 | 00:00:00 | 00:00:00 | |
| 9A1FER-3 | 2026-09-06 00:49:45 | 45.71571 | 15.29146 | 18° | 18km/h | 24279m | 4.9m/s | 0°C | 0% | 0hPa | 0V | 00:00:00 | 00:00:00 | 00:00:00 | |
| PETON7-10 | 2026-09-06 00:49:35 | 45.71529 | 15.29099 | 35° | 15km/h | 24224m | 5.0m/s | 0°C | 0% | 0hPa | 0V | 00:00:00 | 00:00:00 | 00:00:00 | |
| 9A1FER-3 | 2026-09-06 00:49:28 | 45.71510 | 15.29073 | 7° | 15km/h | 24187m | 5.0m/s | 0°C | 0% | 0hPa | 0V | 00:00:00 | 00:00:00 | 00:00:00 | |
| PETON7-10 | 2026-09-06 00:49:18 | 45.71476 | 15.29051 | 327° | 11km/h | 24128m | 4.4m/s | 0°C | 0% | 0hPa | 0V | 00:00:00 | 00:00:00 | 00:00:00 | |
| 9A1FER-3 | 2026-09-06 00:49:13 | 45.71458 | 15.29048 | 358° | 9km/h | 24101m | 5.5m/s | 0°C | 0% | 0hPa | 0V | 00:00:00 | 00:00:00 | 00:00:00 | |
| PETON7-10 | 2026-09-06 00:49:03 | 45.71442 | 15.29046 | 70° | 9km/h | 24048m | 3.9m/s | 0°C | 0% | 0hPa | 0V | 00:00:00 | 00:00:00 | 00:00:00 | |
| 9A1FER-3 | 2026-09-06 00:48:58 | 45.71453 | 15.29053 | 184° | 7km/h | 24020m | 5.4m/s | 0°C | 0% | 0hPa | 0V | 00:00:00 | 00:00:00 | 00:00:00 | |
| PETON7-10 | 2026-09-06 00:48:48 | 45.71466 | 15.29059 | 170° | 7km/h | 23964m | 4.2m/s | 0°C | 0% | 0hPa | 0V | 00:00:00 | 00:00:00 | 00:00:00 | |
| 9A1FER-3 | 2026-09-06 00:48:43 | 45.71472 | 15.29060 | 91° | 9km/h | 23937m | 5.5m/s | 0°C | 0% | 0hPa | 0V | 00:00:00 | 00:00:00 | 00:00:00 | |
| PETON7-10 | 2026-09-06 00:48:33 | 45.71472 | 15.29046 | 29° | 11km/h | 23883m | 5.3m/s | 0°C | 0% | 0hPa | 0V | 00:00:00 | 00:00:00 | 00:00:00 | |
| 9A1FER-3 | 2026-09-06 00:48:28 | 45.71462 | 15.29032 | 354° | 9km/h | 23855m | 4.6m/s | 0°C | 0% | 0hPa | 0V | 00:00:00 | 00:00:00 | 00:00:00 | |
| PETON7-10 | 2026-09-06 00:48:17 | 45.71443 | 15.29011 | 44° | 7km/h | 23793m | 4.4m/s | 0°C | 0% | 0hPa | 0V | 00:00:00 | 00:00:00 | 00:00:00 | |
| 9A1FER-3 | 2026-09-06 00:48:13 | 45.71437 | 15.28999 | 27° | 7km/h | 23770m | 5.6m/s | 0°C | 0% | 0hPa | 0V | 00:00:00 | 00:00:00 | 00:00:00 | |
| PETON7-10 | 2026-09-06 00:48:02 | 45.71435 | 15.28983 | 110° | 7km/h | 23705m | 7.2m/s | 0°C | 0% | 0hPa | 0V | 00:00:00 | 00:00:00 | 00:00:00 | |
| 9A1FER-3 | 2026-09-06 00:47:58 | 45.71440 | 15.28977 | 247° | 7km/h | 23682m | 4.9m/s | 0°C | 0% | 0hPa | 0V | 00:00:00 | 00:00:00 | 00:00:00 | |
| PETON7-10 | 2026-09-06 00:47:46 | 45.71434 | 15.28962 | 262° | 11km/h | 23617m | 4.8m/s | 0°C | 0% | 0hPa | 0V | 00:00:00 | 00:00:00 | 00:00:00 | |
| 9A1FER-3 | 2026-09-06 00:47:43 | 45.71436 | 15.28962 | 107° | 13km/h | 23600m | 5.1m/s | 0°C | 0% | 0hPa | 0V | 00:00:00 | 00:00:00 | 00:00:00 | |
| PETON7-10 | 2026-09-06 00:47:31 | 45.71454 | 15.28943 | 153° | 11km/h | 23533m | 6.2m/s | 0°C | 0% | 0hPa | 0V | 00:00:00 | 00:00:00 | 00:00:00 | |
| 9A1FER-3 | 2026-09-06 00:47:28 | 45.71464 | 15.28932 | 129° | 7km/h | 23518m | 4.5m/s | 0°C | 0% | 0hPa | 0V | 00:00:00 | 00:00:00 | 00:00:00 | |
| PETON7-10 | 2026-09-06 00:47:16 | 45.71475 | 15.28928 | 128° | 5km/h | 23453m | 7.0m/s | 0°C | 0% | 0hPa | 0V | 00:00:00 | 00:00:00 | 00:00:00 | |
| 9A1FER-3 | 2026-09-06 00:47:13 | 45.71476 | 15.28931 | 344° | 7km/h | 23436m | 6.5m/s | 0°C | 0% | 0hPa | 0V | 00:00:00 | 00:00:00 | 00:00:00 | |
| PETON7-10 | 2026-09-06 00:47:01 | 45.71479 | 15.28926 | 344° | 9km/h | 23372m | 4.1m/s | 0°C | 0% | 0hPa | 0V | 00:00:00 | 00:00:00 | 00:00:00 | |
| 9A1FER-3 | 2026-09-06 00:46:58 | 45.71476 | 15.28932 | 217° | 9km/h | 23356m | 4.6m/s | 0°C | 0% | 0hPa | 0V | 00:00:00 | 00:00:00 | 00:00:00 | |
| PETON7-10 | 2026-09-06 00:46:46 | 45.71477 | 15.28935 | 134° | 11km/h | 23290m | 7.2m/s | 0°C | 0% | 0hPa | 0V | 00:00:00 | 00:00:00 | 00:00:00 | |
| 9A1FER-3 | 2026-09-06 00:46:43 | 45.71483 | 15.28926 | 149° | 11km/h | 23272m | 5.0m/s | 0°C | 0% | 0hPa | 0V | 00:00:00 | 00:00:00 | 00:00:00 | |
| PETON7-10 | 2026-09-06 00:46:31 | 45.71496 | 15.28916 | 136° | 9km/h | 23207m | 4.9m/s | 0°C | 0% | 0hPa | 0V | 00:00:00 | 00:00:00 | 00:00:00 | |
| 9A1FER-3 | 2026-09-06 00:46:27 | 45.71492 | 15.28916 | 289° | 11km/h | 23185m | 5.0m/s | 0°C | 0% | 0hPa | 0V | 00:00:00 | 00:00:00 | 00:00:00 | |
| PETON7-10 | 2026-09-06 00:46:16 | 45.71486 | 15.28919 | 324° | 16km/h | 23127m | 6.7m/s | 0°C | 0% | 0hPa | 0V | 00:00:00 | 00:00:00 | 00:00:00 | |
| 9A1FER-3 | 2026-09-06 00:46:12 | 45.71481 | 15.28933 | 133° | 13km/h | 23104m | 4.8m/s | 0°C | 0% | 0hPa | 0V | 00:00:00 | 00:00:00 | 00:00:00 | |
| PETON7-10 | 2026-09-06 00:46:01 | 45.71472 | 15.28953 | 230° | 11km/h | 23047m | 6.1m/s | 0°C | 0% | 0hPa | 0V | 00:00:00 | 00:00:00 | 00:00:00 | |
| 9A1FER-3 | 2026-09-06 00:45:57 | 45.71479 | 15.28952 | 7° | 11km/h | 23025m | 5.1m/s | 0°C | 0% | 0hPa | 0V | 00:00:00 | 00:00:00 | 00:00:00 | |
| PETON7-10 | 2026-09-06 00:45:46 | 45.71480 | 15.28981 | 205° | 11km/h | 22965m | 5.8m/s | 0°C | 0% | 0hPa | 0V | 00:00:00 | 00:00:00 | 00:00:00 | |
| 9A1FER-3 | 2026-09-06 00:45:42 | 45.71483 | 15.28998 | 244° | 11km/h | 22944m | 3.8m/s | 0°C | 0% | 0hPa | 0V | 00:00:00 | 00:00:00 | 00:00:00 | |
| PETON7-10 | 2026-09-06 00:45:31 | 45.71502 | 15.29022 | 187° | 16km/h | 22887m | 5.8m/s | 0°C | 0% | 0hPa | 0V | 00:00:00 | 00:00:00 | 00:00:00 | |
| 9A1FER-3 | 2026-09-06 00:45:27 | 45.71512 | 15.29022 | 170° | 18km/h | 22868m | 5.1m/s | 0°C | 0% | 0hPa | 0V | 00:00:00 | 00:00:00 | 00:00:00 | |
| PETON7-10 | 2026-09-06 00:45:16 | 45.71564 | 15.28999 | 176° | 24km/h | 22801m | 5.0m/s | 0°C | 0% | 0hPa | 0V | 00:00:00 | 00:00:00 | 00:00:00 | |
| 9A1FER-3 | 2026-09-06 00:45:12 | 45.71580 | 15.28989 | 152° | 26km/h | 22783m | 7.6m/s | 0°C | 0% | 0hPa | 0V | 00:00:00 | 00:00:00 | 00:00:00 | |
| PETON7-10 | 2026-09-06 00:44:58 | 45.71657 | 15.28927 | 138° | 26km/h | 22704m | 5.1m/s | 0°C | 0% | 0hPa | 0V | 00:00:00 | 00:00:00 | 00:00:00 | |
| PETON7-10 | 2026-09-06 00:44:43 | 45.71735 | 15.28842 | 129° | 29km/h | 22626m | 5.7m/s | 0°C | 0% | 0hPa | 0V | 00:00:00 | 00:00:00 | 00:00:00 | |
| 9A1FER-3 | 2026-09-06 00:44:42 | 45.71740 | 15.28834 | 126° | 29km/h | 22620m | 4.4m/s | 0°C | 0% | 0hPa | 0V | 00:00:00 | 00:00:00 | 00:00:00 | |
| PETON7-10 | 2026-09-06 00:44:28 | 45.71807 | 15.28726 | 153° | 20km/h | 22548m | 5.7m/s | 0°C | 0% | 0hPa | 0V | 00:00:00 | 00:00:00 | 00:00:00 | |
| 9A1FER-3 | 2026-09-06 00:44:27 | 45.71811 | 15.28722 | 150° | 22km/h | 22542m | 6.5m/s | 0°C | 0% | 0hPa | 0V | 00:00:00 | 00:00:00 | 00:00:00 | |
| PETON7-10 | 2026-09-06 00:44:13 | 45.71866 | 15.28653 | 136° | 16km/h | 22466m | 5.5m/s | 0°C | 0% | 0hPa | 0V | 00:00:00 | 00:00:00 | 00:00:00 | |
| 9A1FER-3 | 2026-09-06 00:44:12 | 45.71869 | 15.28647 | 133° | 18km/h | 22461m | 4.7m/s | 0°C | 0% | 0hPa | 0V | 00:00:00 | 00:00:00 | 00:00:00 | |
| PETON7-10 | 2026-09-06 00:43:58 | 45.71896 | 15.28572 | 85° | 20km/h | 22388m | 4.0m/s | 0°C | 0% | 0hPa | 0V | 00:00:00 | 00:00:00 | 00:00:00 | |
| 9A1FER-3 | 2026-09-06 00:43:57 | 45.71897 | 15.28566 | 109° | 20km/h | 22383m | 6.0m/s | 0°C | 0% | 0hPa | 0V | 00:00:00 | 00:00:00 | 00:00:00 | |
| PETON7-10 | 2026-09-06 00:43:43 | 45.71927 | 15.28469 | 116° | 15km/h | 22305m | 5.0m/s | 0°C | 0% | 0hPa | 0V | 00:00:00 | 00:00:00 | 00:00:00 | |
| 9A1FER-3 | 2026-09-06 00:43:42 | 45.71930 | 15.28461 | 118° | 15km/h | 22299m | 5.9m/s | 0°C | 0% | 0hPa | 0V | 00:00:00 | 00:00:00 | 00:00:00 | |
| 9A1FER-3 | 2026-09-06 00:43:27 | 45.71926 | 15.28391 | 45° | 11km/h | 22221m | 5.2m/s | 0°C | 0% | 0hPa | 0V | 00:00:00 | 00:00:00 | 00:00:00 | |
| PETON7-10 | 2026-09-06 00:43:26 | 45.71925 | 15.28387 | 69° | 9km/h | 22216m | 4.6m/s | 0°C | 0% | 0hPa | 0V | 00:00:00 | 00:00:00 | 00:00:00 | |
| 9A1FER-3 | 2026-09-06 00:43:12 | 45.71930 | 15.28352 | 160° | 5km/h | 22140m | 6.2m/s | 0°C | 0% | 0hPa | 0V | 00:00:00 | 00:00:00 | 00:00:00 | |
| PETON7-10 | 2026-09-06 00:43:09 | 45.71926 | 15.28346 | 356° | 5km/h | 22118m | 5.2m/s | 0°C | 0% | 0hPa | 0V | 00:00:00 | 00:00:00 | 00:00:00 | |
| 9A1FER-3 | 2026-09-06 00:42:57 | 45.71933 | 15.28339 | 230° | 9km/h | 22054m | 4.1m/s | 0°C | 0% | 0hPa | 0V | 00:00:00 | 00:00:00 | 00:00:00 | |
| PETON7-10 | 2026-09-06 00:42:52 | 45.71934 | 15.28338 | 163° | 11km/h | 22028m | 4.3m/s | 0°C | 0% | 0hPa | 0V | 00:00:00 | 00:00:00 | 00:00:00 | |
| 9A1FER-3 | 2026-09-06 00:42:42 | 45.71958 | 15.28332 | 290° | 11km/h | 21971m | 3.7m/s | 0°C | 0% | 0hPa | 0V | 00:00:00 | 00:00:00 | 00:00:00 | |
| PETON7-10 | 2026-09-06 00:42:37 | 45.71966 | 15.28325 | 215° | 13km/h | 21943m | 5.0m/s | 0°C | 0% | 0hPa | 0V | 00:00:00 | 00:00:00 | 00:00:00 | |
| 9A1FER-3 | 2026-09-06 00:42:27 | 45.71990 | 15.28334 | 162° | 15km/h | 21888m | 4.6m/s | 0°C | 0% | 0hPa | 0V | 00:00:00 | 00:00:00 | 00:00:00 | |
| PETON7-10 | 2026-09-06 00:42:21 | 45.72010 | 15.28335 | 205° | 24km/h | 21856m | 4.4m/s | 0°C | 0% | 0hPa | 0V | 00:00:00 | 00:00:00 | 00:00:00 | |
| 9A1FER-3 | 2026-09-06 00:42:12 | 45.72042 | 15.28320 | 162° | 20km/h | 21806m | 4.9m/s | 0°C | 0% | 0hPa | 0V | 00:00:00 | 00:00:00 | 00:00:00 | |
| PETON7-10 | 2026-09-06 00:42:04 | 45.72078 | 15.28298 | 129° | 16km/h | 21762m | 4.9m/s | 0°C | 0% | 0hPa | 0V | 00:00:00 | 00:00:00 | 00:00:00 | |
| 9A1FER-3 | 2026-09-06 00:41:57 | 45.72107 | 15.28275 | 132° | 18km/h | 21724m | 5.9m/s | 0°C | 0% | 0hPa | 0V | 00:00:00 | 00:00:00 | 00:00:00 | |
| 9A1FER-3 | 2026-09-06 00:41:42 | 45.72155 | 15.28203 | 122° | 18km/h | 21639m | 6.1m/s | 0°C | 0% | 0hPa | 0V | 00:00:00 | 00:00:00 | 00:00:00 | |
| PETON7-10 | 2026-09-06 00:41:40 | 45.72159 | 15.28190 | 101° | 18km/h | 21629m | 4.9m/s | 0°C | 0% | 0hPa | 0V | 00:00:00 | 00:00:00 | 00:00:00 | |
| 9A1FER-3 | 2026-09-06 00:41:27 | 45.72190 | 15.28132 | 125° | 16km/h | 21558m | 5.4m/s | 0°C | 0% | 0hPa | 0V | 00:00:00 | 00:00:00 | 00:00:00 | |
| PETON7-10 | 2026-09-06 00:41:21 | 45.72209 | 15.28111 | 101° | 13km/h | 21525m | 6.8m/s | 0°C | 0% | 0hPa | 0V | 00:00:00 | 00:00:00 | 00:00:00 | |
| 9A1FER-3 | 2026-09-06 00:41:12 | 45.72226 | 15.28072 | 79° | 11km/h | 21474m | 5.2m/s | 0°C | 0% | 0hPa | 0V | 00:00:00 | 00:00:00 | 00:00:00 | |
| 9A1FER-3 | 2026-09-06 00:40:57 | 45.72254 | 15.28028 | 184° | 11km/h | 21393m | 5.5m/s | 0°C | 0% | 0hPa | 0V | 00:00:00 | 00:00:00 | 00:00:00 | |
| 9A1FER-3 | 2026-09-06 00:40:41 | 45.72283 | 15.27998 | 113° | 9km/h | 21301m | 4.4m/s | 0°C | 0% | 0hPa | 0V | 00:00:00 | 00:00:00 | 00:00:00 | |
| 9A1FER-3 | 2026-09-06 00:40:25 | 45.72317 | 15.27967 | 154° | 22km/h | 21215m | 6.6m/s | 0°C | 0% | 0hPa | 0V | 00:00:00 | 00:00:00 | 00:00:00 | |
| PETON7-10 | 2026-09-06 00:40:24 | 45.72322 | 15.27963 | 151° | 26km/h | 21210m | 3.0m/s | 0°C | 0% | 0hPa | 0V | 00:00:00 | 00:00:00 | 00:00:00 | |
| 9A1FER-3 | 2026-09-06 00:40:10 | 45.72365 | 15.27866 | 111° | 31km/h | 21131m | 6.0m/s | 0°C | 0% | 0hPa | 0V | 00:00:00 | 00:00:00 | 00:00:00 | |
| PETON7-10 | 2026-09-06 00:40:04 | 45.72378 | 15.27810 | 117° | 35km/h | 21099m | 5.4m/s | 0°C | 0% | 0hPa | 0V | 00:00:00 | 00:00:00 | 00:00:00 | |
| 9A1FER-3 | 2026-09-06 00:39:55 | 45.72404 | 15.27705 | 100° | 33km/h | 21049m | 4.4m/s | 0°C | 0% | 0hPa | 0V | 00:00:00 | 00:00:00 | 00:00:00 | |
| PETON7-10 | 2026-09-06 00:39:49 | 45.72420 | 15.27641 | 106° | 38km/h | 21017m | 6.6m/s | 0°C | 0% | 0hPa | 0V | 00:00:00 | 00:00:00 | 00:00:00 | |
| 9A1FER-3 | 2026-09-06 00:39:39 | 45.72432 | 15.27513 | 109° | 44km/h | 20962m | 3.6m/s | 0°C | 0% | 0hPa | 0V | 00:00:00 | 00:00:00 | 00:00:00 | |
| PETON7-10 | 2026-09-06 00:39:34 | 45.72435 | 15.27444 | 65° | 42km/h | 20938m | 5.4m/s | 0°C | 0% | 0hPa | 0V | 00:00:00 | 00:00:00 | 00:00:00 | |
| 9A1FER-3 | 2026-09-06 00:39:24 | 45.72421 | 15.27290 | 76° | 40km/h | 20889m | 4.4m/s | 0°C | 0% | 0hPa | 0V | 00:00:00 | 00:00:00 | 00:00:00 | |
| PETON7-10 | 2026-09-06 00:39:18 | 45.72405 | 15.27201 | 74° | 40km/h | 20858m | 6.4m/s | 0°C | 0% | 0hPa | 0V | 00:00:00 | 00:00:00 | 00:00:00 | |
| 9A1FER-3 | 2026-09-06 00:39:09 | 45.72377 | 15.27079 | 85° | 38km/h | 20813m | 4.7m/s | 0°C | 0% | 0hPa | 0V | 00:00:00 | 00:00:00 | 00:00:00 | |
| PETON7-10 | 2026-09-06 00:39:01 | 45.72348 | 15.26972 | 67° | 38km/h | 20770m | 6.6m/s | 0°C | 0% | 0hPa | 0V | 00:00:00 | 00:00:00 | 00:00:00 | |
| 9A1FER-3 | 2026-09-06 00:38:54 | 45.72329 | 15.26890 | 70° | 35km/h | 20734m | 4.7m/s | 0°C | 0% | 0hPa | 0V | 00:00:00 | 00:00:00 | 00:00:00 | |
| PETON7-10 | 2026-09-06 00:38:46 | 45.72298 | 15.26788 | 67° | 31km/h | 20692m | 4.3m/s | 0°C | 0% | 0hPa | 0V | 00:00:00 | 00:00:00 | 00:00:00 | |
| 9A1FER-3 | 2026-09-06 00:38:38 | 45.72271 | 15.26707 | 75° | 27km/h | 20648m | 5.3m/s | 0°C | 0% | 0hPa | 0V | 00:00:00 | 00:00:00 | 00:00:00 | |
| PETON7-10 | 2026-09-06 00:38:29 | 45.72245 | 15.26625 | 79° | 22km/h | 20598m | 4.9m/s | 0°C | 0% | 0hPa | 0V | 00:00:00 | 00:00:00 | 00:00:00 | |
| 9A1FER-3 | 2026-09-06 00:38:22 | 45.72237 | 15.26569 | 87° | 16km/h | 20558m | 6.1m/s | 0°C | 0% | 0hPa | 0V | 00:00:00 | 00:00:00 | 00:00:00 | |
| PETON7-10 | 2026-09-06 00:38:09 | 45.72249 | 15.26482 | 113° | 18km/h | 20490m | 4.5m/s | 0°C | 0% | 0hPa | 0V | 00:00:00 | 00:00:00 | 00:00:00 | |
| 9A1FER-3 | 2026-09-06 00:38:06 | 45.72253 | 15.26469 | 103° | 20km/h | 20474m | 4.4m/s | 0°C | 0% | 0hPa | 0V | 00:00:00 | 00:00:00 | 00:00:00 | |
| 9A1FER-3 | 2026-09-06 00:37:51 | 45.72294 | 15.26382 | 135° | 22km/h | 20392m | 5.5m/s | 0°C | 0% | 0hPa | 0V | 00:00:00 | 00:00:00 | 00:00:00 | |
| PETON7-10 | 2026-09-06 00:37:43 | 45.72336 | 15.26352 | 141° | 26km/h | 20348m | 5.1m/s | 0°C | 0% | 0hPa | 0V | 00:00:00 | 00:00:00 | 00:00:00 | |
| 9A1FER-3 | 2026-09-06 00:37:36 | 45.72365 | 15.26322 | 172° | 22km/h | 20309m | 5.9m/s | 0°C | 0% | 0hPa | 0V | 00:00:00 | 00:00:00 | 00:00:00 | |
| 9A1FER-3 | 2026-09-06 00:37:21 | 45.72440 | 15.26272 | 167° | 18km/h | 20230m | 5.1m/s | 0°C | 0% | 0hPa | 0V | 00:00:00 | 00:00:00 | 00:00:00 | |
| 9A1FER-3 | 2026-09-06 00:37:06 | 45.72500 | 15.26234 | 167° | 20km/h | 20155m | 4.2m/s | 0°C | 0% | 0hPa | 0V | 00:00:00 | 00:00:00 | 00:00:00 | |
| 9A1FER-3 | 2026-09-06 00:36:51 | 45.72567 | 15.26170 | 142° | 16km/h | 20076m | 6.0m/s | 0°C | 0% | 0hPa | 0V | 00:00:00 | 00:00:00 | 00:00:00 | |
| 9A1FER-3 | 2026-09-06 00:36:36 | 45.72620 | 15.26118 | 133° | 24km/h | 19999m | 6.8m/s | 0°C | 0% | 0hPa | 0V | 00:00:00 | 00:00:00 | 00:00:00 | |
| 9A1FER-3 | 2026-09-06 00:36:05 | 45.72730 | 15.25867 | 107° | 27km/h | 19835m | 6.1m/s | 0°C | 0% | 0hPa | 0V | 00:00:00 | 00:00:00 | 00:00:00 | |
| 9A1FER-3 | 2026-09-06 00:35:49 | 45.72778 | 15.25731 | 150° | 29km/h | 19748m | 4.2m/s | 0°C | 0% | 0hPa | 0V | 00:00:00 | 00:00:00 | 00:00:00 | |
| 9A1FER-3 | 2026-09-06 00:35:34 | 45.72851 | 15.25620 | 138° | 27km/h | 19668m | 6.4m/s | 0°C | 0% | 0hPa | 0V | 00:00:00 | 00:00:00 | 00:00:00 | |
| 9A1FER-3 | 2026-09-06 00:35:19 | 45.72916 | 15.25501 | 123° | 26km/h | 19588m | 6.3m/s | 0°C | 0% | 0hPa | 0V | 00:00:00 | 00:00:00 | 00:00:00 | |
| 9A1FER-3 | 2026-09-06 00:35:04 | 45.72953 | 15.25378 | 86° | 29km/h | 19508m | 5.7m/s | 0°C | 0% | 0hPa | 0V | 00:00:00 | 00:00:00 | 00:00:00 | |
| 9A1FER-3 | 2026-09-06 00:34:50 | 45.72971 | 15.25223 | 109° | 29km/h | 19428m | 4.4m/s | 0°C | 0% | 0hPa | 0V | 00:00:00 | 00:00:00 | 00:00:00 | |
| 9A1FER-3 | 2026-09-06 00:34:34 | 45.72974 | 15.25066 | 71° | 31km/h | 19345m | 5.6m/s | 0°C | 0% | 0hPa | 0V | 00:00:00 | 00:00:00 | 00:00:00 | |
| 9A1FER-3 | 2026-09-06 00:34:19 | 45.72966 | 15.24894 | 82° | 46km/h | 19268m | 5.6m/s | 0°C | 0% | 0hPa | 0V | 00:00:00 | 00:00:00 | 00:00:00 | |
| PETON7-10 | 2026-09-06 00:34:17 | 45.72966 | 15.24865 | 97° | 46km/h | 19256m | 5.0m/s | 0°C | 0% | 0hPa | 0V | 00:00:00 | 00:00:00 | 00:00:00 | |
| 9A1FER-3 | 2026-09-06 00:34:03 | 45.72964 | 15.24634 | 88° | 47km/h | 19182m | 4.6m/s | 0°C | 0% | 0hPa | 0V | 00:00:00 | 00:00:00 | 00:00:00 | |
| PETON7-10 | 2026-09-06 00:34:02 | 45.72963 | 15.24616 | 89° | 51km/h | 19176m | 6.4m/s | 0°C | 0% | 0hPa | 0V | 00:00:00 | 00:00:00 | 00:00:00 | |
| 9A1FER-3 | 2026-09-06 00:33:48 | 45.72942 | 15.24382 | 73° | 44km/h | 19100m | 5.7m/s | 0°C | 0% | 0hPa | 0V | 00:00:00 | 00:00:00 | 00:00:00 | |
| PETON7-10 | 2026-09-06 00:33:47 | 45.72938 | 15.24366 | 73° | 40km/h | 19095m | 5.9m/s | 0°C | 0% | 0hPa | 0V | 00:00:00 | 00:00:00 | 00:00:00 | |
| 9A1FER-3 | 2026-09-06 00:33:33 | 45.72903 | 15.24156 | 82° | 42km/h | 19020m | 6.7m/s | 0°C | 0% | 0hPa | 0V | 00:00:00 | 00:00:00 | 00:00:00 | |
| 9A1FER-3 | 2026-09-06 00:33:18 | 45.72897 | 15.23930 | 92° | 46km/h | 18934m | 6.6m/s | 0°C | 0% | 0hPa | 0V | 00:00:00 | 00:00:00 | 00:00:00 | |
| 9A1FER-3 | 2026-09-06 00:33:02 | 45.72896 | 15.23665 | 84° | 46km/h | 18852m | 6.3m/s | 0°C | 0% | 0hPa | 0V | 00:00:00 | 00:00:00 | 00:00:00 | |
| 9A1FER-3 | 2026-09-06 00:32:47 | 45.72886 | 15.23418 | 84° | 42km/h | 18774m | 4.0m/s | 0°C | 0% | 0hPa | 0V | 00:00:00 | 00:00:00 | 00:00:00 | |
| 9A1FER-3 | 2026-09-06 00:32:17 | 45.72922 | 15.22916 | 91° | 49km/h | 18621m | 5.1m/s | 0°C | 0% | 0hPa | 0V | 00:00:00 | 00:00:00 | 00:00:00 | |
| 9A1FER-3 | 2026-09-06 00:32:02 | 45.72964 | 15.22655 | 110° | 51km/h | 18544m | 6.3m/s | 0°C | 0% | 0hPa | 0V | 00:00:00 | 00:00:00 | 00:00:00 | |
| 9A1FER-3 | 2026-09-06 00:31:47 | 45.72999 | 15.22386 | 104° | 49km/h | 18474m | 4.7m/s | 0°C | 0% | 0hPa | 0V | 00:00:00 | 00:00:00 | 00:00:00 | |
| 9A1FER-3 | 2026-09-06 00:31:32 | 45.73036 | 15.22122 | 108° | 55km/h | 18399m | 5.0m/s | 0°C | 0% | 0hPa | 0V | 00:00:00 | 00:00:00 | 00:00:00 | |
| 9A1FER-3 | 2026-09-06 00:31:17 | 45.73115 | 15.21843 | 118° | 53km/h | 18326m | 3.8m/s | 0°C | 0% | 0hPa | 0V | 00:00:00 | 00:00:00 | 00:00:00 | |
| 9A1FER-3 | 2026-09-06 00:31:02 | 45.73205 | 15.21588 | 120° | 53km/h | 18258m | 4.0m/s | 0°C | 0% | 0hPa | 0V | 00:00:00 | 00:00:00 | 00:00:00 | |
| 9A1FER-10 | 2026-09-06 00:30:55 | 45.73254 | 15.21469 | 119° | 57km/h | 18226m | 2.9m/s | 0°C | 0% | 0hPa | 0V | 00:00:00 | 00:00:00 | 00:00:00 | |
| 9A1FER-3 | 2026-09-06 00:30:47 | 45.73311 | 15.21345 | 125° | 53km/h | 18186m | 5.6m/s | 0°C | 0% | 0hPa | 0V | 00:00:00 | 00:00:00 | 00:00:00 | |
| 9A1FER-3 | 2026-09-06 00:30:32 | 45.73416 | 15.21095 | 121° | 58km/h | 18115m | 3.8m/s | 0°C | 0% | 0hPa | 0V | 00:00:00 | 00:00:00 | 00:00:00 | |
| 9A1FER-3 | 2026-09-06 00:30:17 | 45.73528 | 15.20820 | 117° | 60km/h | 18043m | 4.1m/s | 0°C | 0% | 0hPa | 0V | 00:00:00 | 00:00:00 | 00:00:00 | |
| 9A1FER-3 | 2026-09-06 00:29:47 | 45.73692 | 15.20214 | 114° | 55km/h | 17896m | 4.3m/s | 0°C | 0% | 0hPa | 0V | 00:00:00 | 00:00:00 | 00:00:00 | |
| 9A1FER-3 | 2026-09-06 00:29:31 | 45.73759 | 15.19916 | 98° | 47km/h | 17814m | 5.2m/s | 0°C | 0% | 0hPa | 0V | 00:00:00 | 00:00:00 | 00:00:00 | |
| 9A1FER-3 | 2026-09-06 00:29:16 | 45.73780 | 15.19655 | 98° | 46km/h | 17734m | 4.1m/s | 0°C | 0% | 0hPa | 0V | 00:00:00 | 00:00:00 | 00:00:00 | |
| 9A1FER-3 | 2026-09-06 00:29:01 | 45.73815 | 15.19416 | 105° | 44km/h | 17656m | 5.1m/s | 0°C | 0% | 0hPa | 0V | 00:00:00 | 00:00:00 | 00:00:00 | |
| 9A1FER-3 | 2026-09-06 00:28:46 | 45.73851 | 15.19190 | 121° | 46km/h | 17578m | 6.2m/s | 0°C | 0% | 0hPa | 0V | 00:00:00 | 00:00:00 | 00:00:00 | |
| 9A1FER-3 | 2026-09-06 00:27:35 | 45.74250 | 15.18212 | 126° | 47km/h | 17207m | 5.5m/s | 0°C | 0% | 0hPa | 0V | 00:00:00 | 00:00:00 | 00:00:00 | |
| 9A1FER-3 | 2026-09-06 00:27:09 | 45.74399 | 15.17841 | 123° | 46km/h | 17065m | 3.8m/s | 0°C | 0% | 0hPa | 0V | 00:00:00 | 00:00:00 | 00:00:00 | |
| 9A1FER-3 | 2026-09-06 00:26:54 | 45.74482 | 15.17613 | 110° | 53km/h | 16987m | 6.4m/s | 0°C | 0% | 0hPa | 0V | 00:00:00 | 00:00:00 | 00:00:00 | |
| 9A1FER-3 | 2026-09-06 00:26:33 | 45.74596 | 15.17260 | 120° | 57km/h | 16883m | 6.0m/s | 0°C | 0% | 0hPa | 0V | 00:00:00 | 00:00:00 | 00:00:00 | |
| 9A1FER-3 | 2026-09-06 00:26:17 | 45.74705 | 15.16976 | 118° | 62km/h | 16805m | 5.2m/s | 0°C | 0% | 0hPa | 0V | 00:00:00 | 00:00:00 | 00:00:00 | |
| 9A1FER-3 | 2026-09-06 00:26:02 | 45.74809 | 15.16676 | 116° | 64km/h | 16733m | 6.4m/s | 0°C | 0% | 0hPa | 0V | 00:00:00 | 00:00:00 | 00:00:00 | |
| 9A1FER-3 | 2026-09-06 00:25:47 | 45.74938 | 15.16379 | 128° | 71km/h | 16658m | 4.8m/s | 0°C | 0% | 0hPa | 0V | 00:00:00 | 00:00:00 | 00:00:00 | |
| 9A1FER-3 | 2026-09-06 00:25:32 | 45.75075 | 15.16045 | 115° | 71km/h | 16588m | 3.6m/s | 0°C | 0% | 0hPa | 0V | 00:00:00 | 00:00:00 | 00:00:00 | |
| 9A1FER-3 | 2026-09-06 00:25:17 | 45.75193 | 15.15698 | 112° | 75km/h | 16518m | 5.0m/s | 0°C | 0% | 0hPa | 0V | 00:00:00 | 00:00:00 | 00:00:00 | |
| 9A1FER-3 | 2026-09-06 00:25:01 | 45.75328 | 15.15310 | 117° | 71km/h | 16450m | 5.1m/s | 0°C | 0% | 0hPa | 0V | 00:00:00 | 00:00:00 | 00:00:00 | |
| 9A1FER-3 | 2026-09-06 00:24:45 | 45.75443 | 15.14938 | 109° | 69km/h | 16379m | 3.6m/s | 0°C | 0% | 0hPa | 0V | 00:00:00 | 00:00:00 | 00:00:00 | |
| 9A1FER-10 | 2026-09-06 00:24:32 | 45.75512 | 15.14629 | 113° | 69km/h | 16318m | 2.5m/s | 0°C | 0% | 0hPa | 0V | 00:00:00 | 00:00:00 | 00:00:00 | |
| 9A1FER-3 | 2026-09-06 00:24:30 | 45.75523 | 15.14584 | 106° | 71km/h | 16309m | 3.7m/s | 0°C | 0% | 0hPa | 0V | 00:00:00 | 00:00:00 | 00:00:00 | |
| 9A1FER-3 | 2026-09-06 00:24:15 | 45.75578 | 15.14209 | 102° | 69km/h | 16240m | 6.3m/s | 0°C | 0% | 0hPa | 0V | 00:00:00 | 00:00:00 | 00:00:00 | |
| 9A1FER-3 | 2026-09-06 00:23:58 | 45.75635 | 15.13799 | 96° | 75km/h | 16159m | 5.0m/s | 0°C | 0% | 0hPa | 0V | 00:00:00 | 00:00:00 | 00:00:00 | |
| 9A1FER-3 | 2026-09-06 00:23:43 | 45.75655 | 15.13402 | 87° | 71km/h | 16084m | 2.6m/s | 0°C | 0% | 0hPa | 0V | 00:00:00 | 00:00:00 | 00:00:00 | |
| 9A1FER-10 | 2026-09-06 00:23:35 | 45.75665 | 15.13194 | 92° | 69km/h | 16046m | 6.7m/s | 0°C | 0% | 0hPa | 0V | 00:00:00 | 00:00:00 | 00:00:00 | |
| 9A1FER-3 | 2026-09-06 00:23:28 | 45.75672 | 15.13015 | 98° | 69km/h | 16009m | 4.9m/s | 0°C | 0% | 0hPa | 0V | 00:00:00 | 00:00:00 | 00:00:00 | |
| 9A1FER-3 | 2026-09-06 00:23:13 | 45.75690 | 15.12643 | 89° | 66km/h | 15937m | 5.6m/s | 0°C | 0% | 0hPa | 0V | 00:00:00 | 00:00:00 | 00:00:00 | |
| 9A1FER-3 | 2026-09-06 00:22:58 | 45.75717 | 15.12285 | 101° | 66km/h | 15868m | 4.6m/s | 0°C | 0% | 0hPa | 0V | 00:00:00 | 00:00:00 | 00:00:00 | |
| 9A1FER-3 | 2026-09-06 00:21:37 | 45.76263 | 15.10524 | 122° | 77km/h | 15489m | 6.1m/s | 0°C | 0% | 0hPa | 0V | 00:00:00 | 00:00:00 | 00:00:00 | |
| 9A1FER-3 | 2026-09-06 00:21:22 | 45.76411 | 15.10152 | 127° | 86km/h | 15419m | 5.4m/s | 0°C | 0% | 0hPa | 0V | 00:00:00 | 00:00:00 | 00:00:00 | |
| 9A1FER-10 | 2026-09-06 00:21:12 | 45.76526 | 15.09894 | 124° | 89km/h | 15373m | 4.8m/s | 0°C | 0% | 0hPa | 0V | 00:00:00 | 00:00:00 | 00:00:00 | |
| 9A1FER-3 | 2026-09-06 00:21:06 | 45.76597 | 15.09737 | 124° | 89km/h | 15347m | 5.9m/s | 0°C | 0% | 0hPa | 0V | 00:00:00 | 00:00:00 | 00:00:00 | |
| 9A1FER-3 | 2026-09-06 00:20:51 | 45.76765 | 15.09314 | 118° | 95km/h | 15276m | 5.7m/s | 0°C | 0% | 0hPa | 0V | 00:00:00 | 00:00:00 | 00:00:00 | |
| 9A1FER-3 | 2026-09-06 00:20:36 | 45.76932 | 15.08858 | 118° | 93km/h | 15204m | 4.2m/s | 0°C | 0% | 0hPa | 0V | 00:00:00 | 00:00:00 | 00:00:00 | |
| 9A1FER-3 | 2026-09-06 00:20:21 | 45.77091 | 15.08400 | 115° | 93km/h | 15134m | 6.5m/s | 0°C | 0% | 0hPa | 0V | 00:00:00 | 00:00:00 | 00:00:00 | |
| 9A1FER-3 | 2026-09-06 00:20:02 | 45.77306 | 15.07836 | 115° | 99km/h | 15044m | 4.6m/s | 0°C | 0% | 0hPa | 0V | 00:00:00 | 00:00:00 | 00:00:00 | |
| 9A1FER-3 | 2026-09-06 00:19:47 | 45.77476 | 15.07358 | 115° | 99km/h | 14970m | 4.4m/s | 0°C | 0% | 0hPa | 0V | 00:00:00 | 00:00:00 | 00:00:00 | |
| 9A1FER-3 | 2026-09-06 00:19:32 | 45.77641 | 15.06867 | 116° | 100km/h | 14898m | 4.7m/s | 0°C | 0% | 0hPa | 0V | 00:00:00 | 00:00:00 | 00:00:00 | |
| 9A1FER-3 | 2026-09-06 00:19:16 | 45.77805 | 15.06338 | 112° | 97km/h | 14823m | 2.2m/s | 0°C | 0% | 0hPa | 0V | 00:00:00 | 00:00:00 | 00:00:00 | |
| 9A1FER-3 | 2026-09-06 00:19:01 | 45.77930 | 15.05845 | 113° | 91km/h | 14752m | 5.3m/s | 0°C | 0% | 0hPa | 0V | 00:00:00 | 00:00:00 | 00:00:00 | |
| 9A1FER-3 | 2026-09-06 00:18:44 | 45.78060 | 15.05307 | 107° | 78km/h | 14672m | 5.4m/s | 0°C | 0% | 0hPa | 0V | 00:00:00 | 00:00:00 | 00:00:00 | |
| 9A1FER-3 | 2026-09-06 00:18:28 | 45.78157 | 15.04879 | 112° | 80km/h | 14596m | 5.6m/s | 0°C | 0% | 0hPa | 0V | 00:00:00 | 00:00:00 | 00:00:00 | |
| 9A1FER-3 | 2026-09-06 00:18:13 | 45.78266 | 15.04475 | 118° | 84km/h | 14520m | 5.8m/s | 0°C | 0% | 0hPa | 0V | 00:00:00 | 00:00:00 | 00:00:00 | |
| 9A1FER-3 | 2026-09-06 00:17:58 | 45.78416 | 15.04077 | 118° | 89km/h | 14450m | 4.7m/s | 0°C | 0% | 0hPa | 0V | 00:00:00 | 00:00:00 | 00:00:00 | |
| 9A1FER-10 | 2026-09-06 00:17:51 | 45.78492 | 15.03880 | 121° | 102km/h | 14416m | 3.7m/s | 0°C | 0% | 0hPa | 0V | 00:00:00 | 00:00:00 | 00:00:00 | |
| 9A1FER-3 | 2026-09-06 00:17:43 | 45.78582 | 15.03640 | 120° | 102km/h | 14377m | 3.8m/s | 0°C | 0% | 0hPa | 0V | 00:00:00 | 00:00:00 | 00:00:00 | |
| 9A1FER-3 | 2026-09-06 00:17:26 | 45.78789 | 15.03081 | 116° | 113km/h | 14296m | 5.4m/s | 0°C | 0% | 0hPa | 0V | 00:00:00 | 00:00:00 | 00:00:00 | |
| 9A1FER-3 | 2026-09-06 00:17:08 | 45.78996 | 15.02418 | 113° | 106km/h | 14207m | 6.8m/s | 0°C | 0% | 0hPa | 0V | 00:00:00 | 00:00:00 | 00:00:00 | |
| 9A1FER-3 | 2026-09-06 00:16:53 | 45.79150 | 15.01889 | 113° | 106km/h | 14133m | 5.0m/s | 0°C | 0% | 0hPa | 0V | 00:00:00 | 00:00:00 | 00:00:00 | |
| 9A1FER-3 | 2026-09-06 00:16:38 | 45.79307 | 15.01367 | 115° | 100km/h | 14060m | 5.0m/s | 0°C | 0% | 0hPa | 0V | 00:00:00 | 00:00:00 | 00:00:00 | |
| 9A1FER-3 | 2026-09-06 00:16:23 | 45.79464 | 15.00873 | 113° | 97km/h | 13990m | 3.7m/s | 0°C | 0% | 0hPa | 0V | 00:00:00 | 00:00:00 | 00:00:00 | |
| 9A1FER-3 | 2026-09-06 00:16:08 | 45.79610 | 15.00396 | 115° | 89km/h | 13915m | 4.1m/s | 0°C | 0% | 0hPa | 0V | 00:00:00 | 00:00:00 | 00:00:00 | |
| 9A1FER-3 | 2026-09-06 00:15:53 | 45.79752 | 14.99957 | 121° | 89km/h | 13844m | 4.0m/s | 0°C | 0% | 0hPa | 0V | 00:00:00 | 00:00:00 | 00:00:00 | |
| 9A1FER-3 | 2026-09-06 00:15:37 | 45.79934 | 14.99499 | 121° | 99km/h | 13768m | 3.9m/s | 0°C | 0% | 0hPa | 0V | 00:00:00 | 00:00:00 | 00:00:00 | |
| 9A1FER-10 | 2026-09-06 00:15:25 | 45.80102 | 14.99148 | 126° | 106km/h | 13711m | 5.4m/s | 0°C | 0% | 0hPa | 0V | 00:00:00 | 00:00:00 | 00:00:00 | |
| 9A1FER-3 | 2026-09-06 00:15:22 | 45.80148 | 14.99053 | 126° | 110km/h | 13697m | 5.3m/s | 0°C | 0% | 0hPa | 0V | 00:00:00 | 00:00:00 | 00:00:00 | |
| 9A1FER-3 | 2026-09-06 00:15:07 | 45.80395 | 14.98594 | 130° | 122km/h | 13634m | 5.1m/s | 0°C | 0% | 0hPa | 0V | 00:00:00 | 00:00:00 | 00:00:00 | |
| 9A1FER-10 | 2026-09-06 00:15:05 | 45.80432 | 14.98529 | 131° | 120km/h | 13625m | 6.1m/s | 0°C | 0% | 0hPa | 0V | 00:00:00 | 00:00:00 | 00:00:00 | |
| 9A1FER-3 | 2026-09-06 00:14:49 | 45.80753 | 14.98001 | 130° | 126km/h | 13553m | 3.4m/s | 0°C | 0% | 0hPa | 0V | 00:00:00 | 00:00:00 | 00:00:00 | |
| 9A1FER-3 | 2026-09-06 00:14:34 | 45.81058 | 14.97469 | 127° | 128km/h | 13486m | 5.4m/s | 0°C | 0% | 0hPa | 0V | 00:00:00 | 00:00:00 | 00:00:00 | |
| 9A1FER-10 | 2026-09-06 00:14:28 | 45.81174 | 14.97242 | 126° | 126km/h | 13458m | 5.1m/s | 0°C | 0% | 0hPa | 0V | 00:00:00 | 00:00:00 | 00:00:00 | |
| 9A1FER-3 | 2026-09-06 00:14:19 | 45.81340 | 14.96906 | 123° | 128km/h | 13418m | 2.1m/s | 0°C | 0% | 0hPa | 0V | 00:00:00 | 00:00:00 | 00:00:00 | |
| 9A1FER-3 | 2026-09-06 00:14:04 | 45.81605 | 14.96329 | 124° | 122km/h | 13358m | 4.3m/s | 0°C | 0% | 0hPa | 0V | 00:00:00 | 00:00:00 | 00:00:00 | |
| 9A1FER-3 | 2026-09-06 00:13:49 | 45.81872 | 14.95774 | 126° | 124km/h | 13295m | 1.7m/s | 0°C | 0% | 0hPa | 0V | 00:00:00 | 00:00:00 | 00:00:00 | |
| 9A1FER-3 | 2026-09-06 00:13:34 | 45.82145 | 14.95226 | 128° | 124km/h | 13234m | 4.2m/s | 0°C | 0% | 0hPa | 0V | 00:00:00 | 00:00:00 | 00:00:00 | |
| 9A1FER-3 | 2026-09-06 00:13:18 | 45.82435 | 14.94635 | 124° | 124km/h | 13166m | 2.2m/s | 0°C | 0% | 0hPa | 0V | 00:00:00 | 00:00:00 | 00:00:00 | |
| 9A1FER-3 | 2026-09-06 00:13:03 | 45.82712 | 14.94085 | 128° | 128km/h | 13102m | 6.1m/s | 0°C | 0% | 0hPa | 0V | 00:00:00 | 00:00:00 | 00:00:00 | |
| 9A1FER-3 | 2026-09-06 00:12:46 | 45.83034 | 14.93448 | 127° | 126km/h | 13037m | 4.5m/s | 0°C | 0% | 0hPa | 0V | 00:00:00 | 00:00:00 | 00:00:00 | |
| 9A1FER-3 | 2026-09-06 00:12:29 | 45.83362 | 14.92831 | 129° | 128km/h | 12966m | 3.7m/s | 0°C | 0% | 0hPa | 0V | 00:00:00 | 00:00:00 | 00:00:00 | |
| 9A1FER-3 | 2026-09-06 00:12:14 | 45.83655 | 14.92283 | 125° | 126km/h | 12910m | 4.6m/s | 0°C | 0% | 0hPa | 0V | 00:00:00 | 00:00:00 | 00:00:00 | |
| 9A1FER-3 | 2026-09-06 00:11:59 | 45.83944 | 14.91739 | 131° | 128km/h | 12846m | 3.6m/s | 0°C | 0% | 0hPa | 0V | 00:00:00 | 00:00:00 | 00:00:00 | |
| 9A1FER-3 | 2026-09-06 00:11:44 | 45.84246 | 14.91201 | 129° | 126km/h | 12780m | 2.9m/s | 0°C | 0% | 0hPa | 0V | 00:00:00 | 00:00:00 | 00:00:00 | |
| 9A1FER-3 | 2026-09-06 00:11:29 | 45.84549 | 14.90677 | 131° | 124km/h | 12718m | 2.4m/s | 0°C | 0% | 0hPa | 0V | 00:00:00 | 00:00:00 | 00:00:00 | |
| 9A1FER-3 | 2026-09-06 00:11:13 | 45.84878 | 14.90128 | 132° | 126km/h | 12651m | 3.1m/s | 0°C | 0% | 0hPa | 0V | 00:00:00 | 00:00:00 | 00:00:00 | |
| 9A1FER-3 | 2026-09-06 00:10:58 | 45.85196 | 14.89618 | 132° | 130km/h | 12585m | 5.5m/s | 0°C | 0% | 0hPa | 0V | 00:00:00 | 00:00:00 | 00:00:00 | |
| 9A1FER-3 | 2026-09-06 00:10:37 | 45.85638 | 14.88887 | 133° | 128km/h | 12495m | 5.1m/s | 0°C | 0% | 0hPa | 0V | 00:00:00 | 00:00:00 | 00:00:00 | |
| 9A1FER-3 | 2026-09-06 00:10:22 | 45.85960 | 14.88364 | 131° | 130km/h | 12430m | 3.4m/s | 0°C | 0% | 0hPa | 0V | 00:00:00 | 00:00:00 | 00:00:00 | |
| 9A1FER-3 | 2026-09-06 00:10:08 | 45.86275 | 14.87827 | 129° | 126km/h | 12362m | 4.5m/s | 0°C | 0% | 0hPa | 0V | 00:00:00 | 00:00:00 | 00:00:00 | |
| 9A1FER-3 | 2026-09-06 00:09:52 | 45.86577 | 14.87301 | 129° | 120km/h | 12296m | 5.4m/s | 0°C | 0% | 0hPa | 0V | 00:00:00 | 00:00:00 | 00:00:00 | |
| 9A1FER-3 | 2026-09-06 00:09:37 | 45.86875 | 14.86795 | 131° | 122km/h | 12227m | 3.6m/s | 0°C | 0% | 0hPa | 0V | 00:00:00 | 00:00:00 | 00:00:00 | |
| 9A1FER-3 | 2026-09-06 00:09:22 | 45.87186 | 14.86305 | 136° | 119km/h | 12147m | 5.3m/s | 0°C | 0% | 0hPa | 0V | 00:00:00 | 00:00:00 | 00:00:00 | |
| 9A1FER-3 | 2026-09-06 00:09:07 | 45.87502 | 14.85844 | 136° | 115km/h | 12062m | 9.4m/s | 0°C | 0% | 0hPa | 0V | 00:00:00 | 00:00:00 | 00:00:00 | |
| 9A1FER-3 | 2026-09-06 00:08:52 | 45.87810 | 14.85407 | 137° | 117km/h | 11975m | 4.0m/s | 0°C | 0% | 0hPa | 0V | 00:00:00 | 00:00:00 | 00:00:00 | |
| 9A1FER-10 | 2026-09-06 00:08:46 | 45.87936 | 14.85233 | 140° | 91km/h | 11942m | 7.0m/s | 0°C | 0% | 0hPa | 0V | 00:00:00 | 00:00:00 | 00:00:00 | |
| 9A1FER-3 | 2026-09-06 00:08:36 | 45.88150 | 14.84935 | 137° | 115km/h | 11888m | 9.1m/s | 0°C | 0% | 0hPa | 0V | 00:00:00 | 00:00:00 | 00:00:00 | |
| 9A1FER-3 | 2026-09-06 00:08:21 | 45.88463 | 14.84498 | 133° | 113km/h | 11805m | 6.9m/s | 0°C | 0% | 0hPa | 0V | 00:00:00 | 00:00:00 | 00:00:00 | |
| 9A1FER-3 | 2026-09-06 00:08:06 | 45.88766 | 14.84057 | 134° | 111km/h | 11727m | 6.3m/s | 0°C | 0% | 0hPa | 0V | 00:00:00 | 00:00:00 | 00:00:00 | |
| 9A1FER-3 | 2026-09-06 00:07:51 | 45.89057 | 14.83622 | 136° | 104km/h | 11642m | 5.7m/s | 0°C | 0% | 0hPa | 0V | 00:00:00 | 00:00:00 | 00:00:00 | |
| OE3JTB-15 | 2026-09-06 00:07:48 | 45.89112 | 14.83542 | 132° | 108km/h | 11622m | 4.7m/s | 0°C | 0% | 0hPa | 0V | 00:00:00 | 00:00:00 | 00:00:00 | |
| 9A1FER-3 | 2026-09-06 00:07:36 | 45.89329 | 14.83216 | 136° | 102km/h | 11551m | 7.4m/s | 0°C | 0% | 0hPa | 0V | 00:00:00 | 00:00:00 | 00:00:00 | |
| 9A1FER-3 | 2026-09-06 00:07:21 | 45.89598 | 14.82819 | 131° | 102km/h | 11467m | 4.3m/s | 0°C | 0% | 0hPa | 0V | 00:00:00 | 00:00:00 | 00:00:00 | |
| 9A1FER-3 | 2026-09-06 00:07:06 | 45.89859 | 14.82403 | 129° | 100km/h | 11382m | 4.0m/s | 0°C | 0% | 0hPa | 0V | 00:00:00 | 00:00:00 | 00:00:00 | |
| 9A1FER-3 | 2026-09-06 00:06:51 | 45.90106 | 14.81982 | 135° | 99km/h | 11291m | 3.4m/s | 0°C | 0% | 0hPa | 0V | 00:00:00 | 00:00:00 | 00:00:00 | |
| 9A1FER-3 | 2026-09-06 00:06:36 | 45.90353 | 14.81574 | 134° | 97km/h | 11205m | 5.6m/s | 0°C | 0% | 0hPa | 0V | 00:00:00 | 00:00:00 | 00:00:00 | |
| 9A1FER-3 | 2026-09-06 00:06:21 | 45.90583 | 14.81163 | 128° | 97km/h | 11129m | 5.8m/s | 0°C | 0% | 0hPa | 0V | 00:00:00 | 00:00:00 | 00:00:00 | |
| 9A1FER-3 | 2026-09-06 00:06:07 | 45.90815 | 14.80755 | 126° | 97km/h | 11056m | 3.9m/s | 0°C | 0% | 0hPa | 0V | 00:00:00 | 00:00:00 | 00:00:00 | |
| 9A1FER-3 | 2026-09-06 00:05:51 | 45.91043 | 14.80345 | 131° | 99km/h | 10981m | 4.7m/s | 0°C | 0% | 0hPa | 0V | 00:00:00 | 00:00:00 | 00:00:00 | |
| 9A1FER-3 | 2026-09-06 00:05:36 | 45.91280 | 14.79931 | 131° | 99km/h | 10893m | 4.6m/s | 0°C | 0% | 0hPa | 0V | 00:00:00 | 00:00:00 | 00:00:00 | |
| 9A1FER-3 | 2026-09-06 00:05:22 | 45.91521 | 14.79522 | 133° | 99km/h | 10809m | 4.3m/s | 0°C | 0% | 0hPa | 0V | 00:00:00 | 00:00:00 | 00:00:00 | |
| 9A1FER-3 | 2026-09-06 00:05:07 | 45.91767 | 14.79124 | 129° | 99km/h | 10726m | 7.5m/s | 0°C | 0% | 0hPa | 0V | 00:00:00 | 00:00:00 | 00:00:00 | |
| 9A1FER-3 | 2026-09-06 00:04:50 | 45.92024 | 14.78690 | 128° | 99km/h | 10641m | 3.8m/s | 0°C | 0% | 0hPa | 0V | 00:00:00 | 00:00:00 | 00:00:00 | |
| 9A1FER-3 | 2026-09-06 00:04:35 | 45.92271 | 14.78288 | 131° | 99km/h | 10557m | 1.9m/s | 0°C | 0% | 0hPa | 0V | 00:00:00 | 00:00:00 | 00:00:00 | |
| 9A1FER-3 | 2026-09-06 00:04:20 | 45.92500 | 14.77862 | 135° | 97km/h | 10481m | 6.6m/s | 0°C | 0% | 0hPa | 0V | 00:00:00 | 00:00:00 | 00:00:00 | |
| 9A1FER-3 | 2026-09-06 00:04:06 | 45.92750 | 14.77473 | 135° | 97km/h | 10400m | 5.0m/s | 0°C | 0% | 0hPa | 0V | 00:00:00 | 00:00:00 | 00:00:00 | |
| 9A1FER-3 | 2026-09-06 00:03:49 | 45.93013 | 14.77057 | 128° | 95km/h | 10320m | 5.2m/s | 0°C | 0% | 0hPa | 0V | 00:00:00 | 00:00:00 | 00:00:00 | |
| 9A1FER-3 | 2026-09-06 00:03:34 | 45.93256 | 14.76664 | 129° | 95km/h | 10246m | 3.8m/s | 0°C | 0% | 0hPa | 0V | 00:00:00 | 00:00:00 | 00:00:00 | |
| 9A1FER-3 | 2026-09-06 00:03:21 | 45.93505 | 14.76252 | 130° | 95km/h | 10179m | 4.1m/s | 0°C | 0% | 0hPa | 0V | 00:00:00 | 00:00:00 | 00:00:00 | |
| 9A1FER-3 | 2026-09-06 00:03:12 | 45.93738 | 14.75869 | 137° | 88km/h | 10110m | 3.6m/s | 0°C | 0% | 0hPa | 0V | 00:00:00 | 00:00:00 | 00:00:00 | |
| 9A1FER-3 | 2026-09-06 00:02:56 | 45.93950 | 14.75504 | 130° | 84km/h | 10036m | 2.6m/s | 0°C | 0% | 0hPa | 0V | 00:00:00 | 00:00:00 | 00:00:00 | |
| 9A1FER-3 | 2026-09-06 00:02:18 | 45.94371 | 14.74802 | 133° | 84km/h | 9876m | 1.8m/s | 0°C | 0% | 0hPa | 0V | 00:00:00 | 00:00:00 | 00:00:00 | |
| 9A1FER-3 | 2026-09-06 00:02:03 | 45.94581 | 14.74459 | 135° | 80km/h | 9798m | 4.6m/s | 0°C | 0% | 0hPa | 0V | 00:00:00 | 00:00:00 | 00:00:00 | |
| 9A1FER-3 | 2026-09-06 00:01:54 | 45.94793 | 14.74142 | 139° | 82km/h | 9723m | 4.5m/s | 0°C | 0% | 0hPa | 0V | 00:00:00 | 00:00:00 | 00:00:00 | |
| 9A1FER-3 | 2026-09-06 00:01:35 | 45.95004 | 14.73823 | 137° | 78km/h | 9645m | 8.0m/s | 0°C | 0% | 0hPa | 0V | 00:00:00 | 00:00:00 | 00:00:00 | |
| 9A1FER-3 | 2026-09-06 00:01:22 | 45.95200 | 14.73493 | 125° | 80km/h | 9566m | 3.7m/s | 0°C | 0% | 0hPa | 0V | 00:00:00 | 00:00:00 | 00:00:00 | |
| 9A1FER-3 | 2026-09-06 00:01:04 | 45.95399 | 14.73158 | 132° | 78km/h | 9498m | 5.8m/s | 0°C | 0% | 0hPa | 0V | 00:00:00 | 00:00:00 | 00:00:00 | |
| 9A1FER-3 | 2026-09-06 00:00:48 | 45.95573 | 14.72816 | 129° | 77km/h | 9435m | 6.4m/s | 0°C | 0% | 0hPa | 0V | 00:00:00 | 00:00:00 | 00:00:00 | |
| 9A1FER-3 | 2026-09-06 00:00:36 | 45.95743 | 14.72479 | 126° | 77km/h | 9367m | 5.1m/s | 0°C | 0% | 0hPa | 0V | 00:00:00 | 00:00:00 | 00:00:00 | |
| 9A1FER-3 | 2026-09-06 00:00:20 | 45.95916 | 14.72143 | 132° | 73km/h | 9300m | 4.5m/s | 0°C | 0% | 0hPa | 0V | 00:00:00 | 00:00:00 | 00:00:00 | |
| 9A1FER-3 | 2026-09-06 00:00:03 | 45.96085 | 14.71820 | 127° | 77km/h | 9229m | 1.2m/s | 0°C | 0% | 0hPa | 0V | 00:00:00 | 00:00:00 | 00:00:00 | |
| 9A1FER-3 | 2026-09-05 23:59:47 | 45.96258 | 14.71453 | 123° | 77km/h | 9153m | 4.8m/s | 0°C | 0% | 0hPa | 0V | 00:00:00 | 00:00:00 | 00:00:00 | |
| 9A1FER-3 | 2026-09-05 23:59:32 | 45.96423 | 14.71110 | 128° | 78km/h | 9082m | 7.3m/s | 0°C | 0% | 0hPa | 0V | 00:00:00 | 00:00:00 | 00:00:00 | |
| 9A1FER-3 | 2026-09-05 23:59:18 | 45.96593 | 14.70759 | 127° | 75km/h | 9008m | 5.5m/s | 0°C | 0% | 0hPa | 0V | 00:00:00 | 00:00:00 | 00:00:00 | |
| 9A1FER-3 | 2026-09-05 23:59:02 | 45.96754 | 14.70420 | 122° | 78km/h | 8933m | 4.6m/s | 0°C | 0% | 0hPa | 0V | 00:00:00 | 00:00:00 | 00:00:00 | |
| 9A1FER-3 | 2026-09-05 23:58:46 | 45.96947 | 14.70053 | 132° | 80km/h | 8852m | 6.1m/s | 0°C | 0% | 0hPa | 0V | 00:00:00 | 00:00:00 | 00:00:00 | |
| 9A1FER-3 | 2026-09-05 23:58:31 | 45.97126 | 14.69706 | 122° | 80km/h | 8778m | 6.1m/s | 0°C | 0% | 0hPa | 0V | 00:00:00 | 00:00:00 | 00:00:00 | |
| 9A1FER-3 | 2026-09-05 23:58:16 | 45.97292 | 14.69339 | 121° | 82km/h | 8706m | 4.5m/s | 0°C | 0% | 0hPa | 0V | 00:00:00 | 00:00:00 | 00:00:00 | |
| 9A1FER-3 | 2026-09-05 23:58:01 | 45.97460 | 14.68960 | 124° | 80km/h | 8637m | 3.2m/s | 0°C | 0% | 0hPa | 0V | 00:00:00 | 00:00:00 | 00:00:00 | |
| 9A1FER-3 | 2026-09-05 23:57:17 | 45.97949 | 14.67862 | 122° | 82km/h | 8445m | 3.4m/s | 0°C | 0% | 0hPa | 0V | 00:00:00 | 00:00:00 | 00:00:00 | |
| 9A1FER-3 | 2026-09-05 23:56:56 | 45.98188 | 14.67339 | 120° | 84km/h | 8356m | 4.0m/s | 0°C | 0% | 0hPa | 0V | 00:00:00 | 00:00:00 | 00:00:00 | |
| 9A1FER-3 | 2026-09-05 23:55:43 | 45.99105 | 14.65551 | 132° | 86km/h | 7994m | 1.7m/s | 0°C | 0% | 0hPa | 0V | 00:00:00 | 00:00:00 | 00:00:00 |